Time;durP1;ratioP1;P1;durP2;ratioP2;P2;SDS_P1;SDS_P2;PMS_P1;PMS_P2;Temp;Humidity;BMP_temperature;BMP_pressure;BME280_temperature;BME280_humidity;BME280_pressure;Samples;Min_cycle;Max_cycle;Signal;HPM_P1;HPM_P2
2024/01/27 00:02:04;;;;;;;18.97;4.10;;;;;;;;;;5073765;28;20048;-28
2024/01/27 00:04:29;;;;;;;17.03;4.13;;;;;;;;;;5073589;28;20839;-27
2024/01/27 00:06:54;;;;;;;16.97;3.97;;;;;;;;;;5074178;28;20247;-28
2024/01/27 00:09:19;;;;;;;25.70;4.78;;;;;;;;;;5073581;28;20242;-28
2024/01/27 00:11:45;;;;;;;23.27;4.57;;;;;;;;;;5072206;28;20027;-27
2024/01/27 00:14:10;;;;;;;16.20;3.92;;;;;;;;;;5073742;28;20255;-28
2024/01/27 00:16:35;;;;;;;19.83;4.47;;;;;;;;;;5074037;28;20025;-28
2024/01/27 00:19:00;;;;;;;14.32;3.70;;;;;;;;;;5073743;28;20290;-28
2024/01/27 00:21:25;;;;;;;23.23;3.90;;;;;;;;;;5073493;28;20016;-28
2024/01/27 00:23:51;;;;;;;20.57;3.67;;;;;;;;;;5073387;28;20360;-28
2024/01/27 00:26:16;;;;;;;24.02;4.32;;;;;;;;;;5073354;28;20293;-28
2024/01/27 00:28:41;;;;;;;15.00;3.63;;;;;;;;;;5073629;28;20059;-28
2024/01/27 00:31:06;;;;;;;16.13;3.33;;;;;;;;;;5073569;28;20032;-28
2024/01/27 00:33:31;;;;;;;14.38;3.17;;;;;;;;;;5073887;28;20304;-28
2024/01/27 00:35:56;;;;;;;20.17;4.23;;;;;;;;;;5073314;28;20035;-28
2024/01/27 00:38:22;;;;;;;17.00;3.27;;;;;;;;;;5073249;28;20346;-29
2024/01/27 00:40:47;;;;;;;16.25;3.50;;;;;;;;;;5073466;28;20247;-28
2024/01/27 00:43:12;;;;;;;19.97;3.70;;;;;;;;;;5073284;28;20379;-28
2024/01/27 00:45:37;;;;;;;17.90;4.00;;;;;;;;;;5073363;28;20318;-28
2024/01/27 00:48:02;;;;;;;17.57;3.50;;;;;;;;;;5073125;28;20422;-28
2024/01/27 00:50:28;;;;;;;18.35;3.67;;;;;;;;;;5073150;28;20250;-28
2024/01/27 00:52:53;;;;;;;12.93;3.43;;;;;;;;;;5073738;28;20016;-28
2024/01/27 00:55:18;;;;;;;19.20;3.33;;;;;;;;;;5073421;28;20263;-28
2024/01/27 00:57:43;;;;;;;19.00;3.63;;;;;;;;;;5073634;28;20032;-27
2024/01/27 01:00:09;;;;;;;25.03;4.03;;;;;;;;;;5073686;28;20091;-28
2024/01/27 01:02:34;;;;;;;16.27;3.63;;;;;;;;;;5072850;28;20290;-28
2024/01/27 01:05:00;;;;;;;14.48;3.00;;;;;;;;;;5073571;28;20020;-28
2024/01/27 01:07:25;;;;;;;15.73;3.53;;;;;;;;;;5073504;28;20022;-28
2024/01/27 01:09:51;;;;;;;23.45;5.22;;;;;;;;;;5073252;28;20363;-28
2024/01/27 01:12:16;;;;;;;17.65;4.57;;;;;;;;;;5072875;28;20460;-27
2024/01/27 01:14:41;;;;;;;17.58;3.92;;;;;;;;;;5073204;28;20075;-28
2024/01/27 01:17:07;;;;;;;24.00;4.43;;;;;;;;;;5073434;28;20027;-27
2024/01/27 01:19:32;;;;;;;16.17;4.53;;;;;;;;;;5073392;28;20102;-27
2024/01/27 01:21:57;;;;;;;16.42;4.13;;;;;;;;;;5073038;28;20099;-28
2024/01/27 01:24:22;;;;;;;20.65;4.13;;;;;;;;;;5072804;28;20535;-28
2024/01/27 01:26:47;;;;;;;20.47;4.13;;;;;;;;;;5073337;28;20017;-28
2024/01/27 01:29:13;;;;;;;19.90;4.38;;;;;;;;;;5073041;28;20606;-27
2024/01/27 01:31:38;;;;;;;23.40;3.83;;;;;;;;;;5073022;28;20020;-28
2024/01/27 01:34:03;;;;;;;28.05;4.55;;;;;;;;;;5073947;28;20478;-27
2024/01/27 01:36:28;;;;;;;22.57;3.87;;;;;;;;;;5076355;28;20380;-27
2024/01/27 01:38:54;;;;;;;23.17;3.67;;;;;;;;;;5076835;28;20258;-28
2024/01/27 01:41:19;;;;;;;23.08;3.97;;;;;;;;;;5076218;28;20021;-27
2024/01/27 01:43:44;;;;;;;22.35;4.03;;;;;;;;;;5076146;28;20434;-28
2024/01/27 01:46:09;;;;;;;23.03;4.27;;;;;;;;;;5076740;28;20059;-28
2024/01/27 01:48:34;;;;;;;30.70;5.00;;;;;;;;;;5076711;28;20568;-27
2024/01/27 01:51:00;;;;;;;27.13;4.32;;;;;;;;;;5076083;28;20020;-28
2024/01/27 01:53:25;;;;;;;18.88;4.18;;;;;;;;;;5076084;28;20069;-27
2024/01/27 01:55:51;;;;;;;19.10;3.92;;;;;;;;;;5076568;28;20042;-27
2024/01/27 01:58:17;;;;;;;22.75;4.20;;;;;;;;;;5075955;28;20020;-27
2024/01/27 02:00:42;;;;;;;15.30;3.45;;;;;;;;;;5075970;28;20024;-28
2024/01/27 02:03:13;;;;;;;17.50;3.53;;;;;;;;;;5075713;28;20071;-27
2024/01/27 02:05:39;;;;;;;20.40;3.78;;;;;;;;;;5076036;28;20025;-27
2024/01/27 02:08:04;;;;;;;15.20;3.70;;;;;;;;;;5076044;28;20359;-27
2024/01/27 02:10:36;;;;;;;20.80;3.20;;;;;;;;;;5076317;28;20518;-28
2024/01/27 02:13:01;;;;;;;22.65;4.05;;;;;;;;;;5075935;28;20027;-27
2024/01/27 02:15:26;;;;;;;15.70;3.50;;;;;;;;;;5075540;28;20020;-28
2024/01/27 02:17:51;;;;;;;17.02;3.35;;;;;;;;;;5075682;28;20376;-28
2024/01/27 02:20:17;;;;;;;13.88;3.22;;;;;;;;;;5075584;28;20051;-27
2024/01/27 02:22:42;;;;;;;17.08;3.15;;;;;;;;;;5076073;28;20021;-28
2024/01/27 02:25:07;;;;;;;20.15;3.58;;;;;;;;;;5075693;28;20043;-28
2024/01/27 02:27:32;;;;;;;15.23;3.88;;;;;;;;;;5075983;28;20024;-27
2024/01/27 02:29:58;;;;;;;16.87;4.10;;;;;;;;;;5075602;28;20375;-28
2024/01/27 02:32:23;;;;;;;18.55;3.40;;;;;;;;;;5075619;28;20399;-28
2024/01/27 02:34:48;;;;;;;17.40;3.55;;;;;;;;;;5075270;28;20021;-28
2024/01/27 02:37:13;;;;;;;18.53;3.57;;;;;;;;;;5075804;28;20021;-27
2024/01/27 02:39:40;;;;;;;19.42;3.30;;;;;;;;;;5075245;28;20242;-27
2024/01/27 02:42:05;;;;;;;12.77;3.17;;;;;;;;;;5075144;28;20031;-28
2024/01/27 02:44:30;;;;;;;20.95;3.25;;;;;;;;;;5075569;28;20096;-28
2024/01/27 02:46:55;;;;;;;19.45;3.42;;;;;;;;;;5074717;28;20012;-28
2024/01/27 02:49:21;;;;;;;19.20;3.17;;;;;;;;;;5075028;28;20523;-27
2024/01/27 02:51:47;;;;;;;19.90;3.75;;;;;;;;;;5075271;28;20308;-27
2024/01/27 02:54:12;;;;;;;13.20;2.90;;;;;;;;;;5075450;28;20035;-28
2024/01/27 02:56:38;;;;;;;17.60;3.97;;;;;;;;;;5074884;28;20471;-28
2024/01/27 02:59:03;;;;;;;18.77;3.73;;;;;;;;;;5075088;28;20266;-28
2024/01/27 03:01:28;;;;;;;12.52;3.08;;;;;;;;;;5074643;28;20279;-27
2024/01/27 03:03:53;;;;;;;23.27;4.45;;;;;;;;;;5074929;28;20071;-27
2024/01/27 03:06:18;;;;;;;20.57;4.20;;;;;;;;;;5074689;28;20020;-27
2024/01/27 03:08:44;;;;;;;21.75;3.53;;;;;;;;;;5074614;28;20285;-28
2024/01/27 03:11:09;;;;;;;22.03;3.17;;;;;;;;;;5074829;28;20049;-28
2024/01/27 03:13:34;;;;;;;20.60;3.70;;;;;;;;;;5074449;28;20259;-28
2024/01/27 03:15:59;;;;;;;17.90;3.38;;;;;;;;;;5075081;28;20023;-27
2024/01/27 03:18:25;;;;;;;12.30;2.90;;;;;;;;;;5074688;28;20017;-28
2024/01/27 03:20:50;;;;;;;13.32;3.05;;;;;;;;;;5074672;28;20371;-28
2024/01/27 03:23:15;;;;;;;18.63;2.93;;;;;;;;;;5074342;28;20027;-28
2024/01/27 03:25:40;;;;;;;27.07;3.30;;;;;;;;;;5074487;28;20278;-28
2024/01/27 03:28:06;;;;;;;14.90;3.55;;;;;;;;;;5074213;28;20362;-28
2024/01/27 03:30:31;;;;;;;18.25;3.00;;;;;;;;;;5074723;28;20099;-27
2024/01/27 03:32:56;;;;;;;14.50;3.43;;;;;;;;;;5074724;28;20017;-27
2024/01/27 03:35:21;;;;;;;17.38;3.30;;;;;;;;;;5074428;28;20714;-27
2024/01/27 03:37:47;;;;;;;16.83;3.33;;;;;;;;;;5074656;28;20017;-28
2024/01/27 03:40:12;;;;;;;23.42;3.13;;;;;;;;;;5074242;28;20319;-27
2024/01/27 03:42:37;;;;;;;13.13;3.10;;;;;;;;;;5074244;28;20029;-27
2024/01/27 03:45:03;;;;;;;18.43;3.03;;;;;;;;;;5073920;28;20456;-28
2024/01/27 03:47:28;;;;;;;20.52;3.60;;;;;;;;;;5072586;28;20263;-27
2024/01/27 03:49:53;;;;;;;23.63;3.92;;;;;;;;;;5074223;28;20023;-29
2024/01/27 03:52:18;;;;;;;16.02;3.10;;;;;;;;;;5073917;28;20019;-27
2024/01/27 03:54:43;;;;;;;13.40;3.10;;;;;;;;;;5072563;28;20078;-27
2024/01/27 03:57:09;;;;;;;11.75;2.65;;;;;;;;;;5073238;28;20375;-27
2024/01/27 03:59:34;;;;;;;19.23;3.25;;;;;;;;;;5073894;28;20070;-27
2024/01/27 04:01:59;;;;;;;12.57;2.78;;;;;;;;;;5073811;28;20052;-27
2024/01/27 04:04:24;;;;;;;19.47;3.37;;;;;;;;;;5073527;28;20024;-27
2024/01/27 04:06:50;;;;;;;21.13;3.17;;;;;;;;;;5073903;28;20301;-27
2024/01/27 04:09:15;;;;;;;19.83;3.67;;;;;;;;;;5074123;28;20024;-27
2024/01/27 04:11:41;;;;;;;16.08;3.00;;;;;;;;;;5073780;28;20251;-27
2024/01/27 04:14:06;;;;;;;12.35;2.50;;;;;;;;;;5073791;28;20017;-27
2024/01/27 04:16:31;;;;;;;18.40;3.05;;;;;;;;;;5072254;28;20464;-27
2024/01/27 04:18:57;;;;;;;11.52;3.00;;;;;;;;;;5073466;28;20024;-27
2024/01/27 04:21:22;;;;;;;20.77;3.10;;;;;;;;;;5073950;28;20024;-27
2024/01/27 04:23:47;;;;;;;21.05;3.70;;;;;;;;;;5073459;28;20048;-27
2024/01/27 04:26:12;;;;;;;14.20;3.45;;;;;;;;;;5073819;28;20107;-27
2024/01/27 04:28:37;;;;;;;15.80;3.58;;;;;;;;;;5073780;28;20013;-27
2024/01/27 04:31:03;;;;;;;19.40;3.38;;;;;;;;;;5073511;28;20514;-27
2024/01/27 04:33:28;;;;;;;19.10;3.30;;;;;;;;;;5073764;28;20048;-27
2024/01/27 04:35:53;;;;;;;16.23;3.15;;;;;;;;;;5073720;28;20074;-27
2024/01/27 04:38:18;;;;;;;15.47;3.40;;;;;;;;;;5073351;28;20375;-27
2024/01/27 04:40:44;;;;;;;14.73;3.50;;;;;;;;;;5073305;28;20330;-27
2024/01/27 04:43:09;;;;;;;16.13;4.80;;;;;;;;;;5073207;28;20261;-28
2024/01/27 04:45:34;;;;;;;13.82;3.50;;;;;;;;;;5073426;28;20313;-27
2024/01/27 04:48:00;;;;;;;25.30;4.13;;;;;;;;;;5073251;28;20104;-27
2024/01/27 04:50:26;;;;;;;19.55;4.03;;;;;;;;;;5073397;28;20020;-27
2024/01/27 04:52:51;;;;;;;17.85;4.35;;;;;;;;;;5073719;28;20027;-27
2024/01/27 04:55:17;;;;;;;19.80;4.82;;;;;;;;;;5073144;28;20017;-27
2024/01/27 04:57:42;;;;;;;17.88;4.35;;;;;;;;;;5073386;28;20070;-27
2024/01/27 05:00:11;;;;;;;14.80;4.77;;;;;;;;;;5073054;28;20456;-27
2024/01/27 05:02:37;;;;;;;24.50;5.00;;;;;;;;;;5072994;28;20294;-27
2024/01/27 05:05:02;;;;;;;21.17;5.60;;;;;;;;;;5072985;28;20086;-27
2024/01/27 05:07:28;;;;;;;20.70;5.32;;;;;;;;;;5073266;28;20282;-28
2024/01/27 05:09:53;;;;;;;15.80;5.65;;;;;;;;;;5076171;28;20499;-27
2024/01/27 05:12:18;;;;;;;21.40;5.88;;;;;;;;;;5076800;28;20029;-27
2024/01/27 05:14:44;;;;;;;20.80;5.85;;;;;;;;;;5076906;28;20025;-27
2024/01/27 05:17:10;;;;;;;21.10;5.50;;;;;;;;;;5077389;28;20100;-28
2024/01/27 05:19:35;;;;;;;23.45;6.15;;;;;;;;;;5077003;28;20059;-28
2024/01/27 05:22:00;;;;;;;20.97;6.27;;;;;;;;;;5076258;28;20025;-28
2024/01/27 05:24:25;;;;;;;23.40;6.90;;;;;;;;;;5076096;28;20290;-27
2024/01/27 05:26:50;;;;;;;25.10;7.15;;;;;;;;;;5076342;28;20478;-27
2024/01/27 05:29:16;;;;;;;20.80;6.68;;;;;;;;;;5075995;28;20546;-26
2024/01/27 05:31:43;;;;;;;25.02;6.88;;;;;;;;;;5076168;28;20479;-26
2024/01/27 05:34:08;;;;;;;26.50;7.22;;;;;;;;;;5076231;28;20024;-28
2024/01/27 05:36:34;;;;;;;21.17;7.07;;;;;;;;;;5076212;28;20024;-28
2024/01/27 05:38:59;;;;;;;19.45;6.82;;;;;;;;;;5076924;28;20024;-27
2024/01/27 05:41:28;;;;;;;14.73;6.67;;;;;;;;;;5076332;28;20446;-27
2024/01/27 05:43:53;;;;;;;28.50;7.53;;;;;;;;;;5076053;28;20290;-27
2024/01/27 05:46:19;;;;;;;23.25;7.90;;;;;;;;;;5075036;28;20018;-27
2024/01/27 05:48:44;;;;;;;18.65;6.72;;;;;;;;;;5076777;28;20020;-27
2024/01/27 05:51:09;;;;;;;23.33;6.90;;;;;;;;;;5076187;28;20020;-28
2024/01/27 05:53:35;;;;;;;27.40;7.75;;;;;;;;;;5074873;28;20320;-28
2024/01/27 05:56:00;;;;;;;29.13;7.70;;;;;;;;;;5076105;28;20464;-28
2024/01/27 05:58:26;;;;;;;22.00;6.75;;;;;;;;;;5076372;28;20025;-28
2024/01/27 06:00:51;;;;;;;18.10;7.20;;;;;;;;;;5076019;28;20017;-28
2024/01/27 06:03:17;;;;;;;22.90;7.47;;;;;;;;;;5075841;28;20052;-27
2024/01/27 06:05:42;;;;;;;19.25;7.32;;;;;;;;;;5075812;28;20278;-28
2024/01/27 06:08:08;;;;;;;22.60;7.68;;;;;;;;;;5076453;28;20104;-27
2024/01/27 06:10:33;;;;;;;18.13;7.55;;;;;;;;;;5076022;28;20087;-28
2024/01/27 06:12:58;;;;;;;24.35;7.43;;;;;;;;;;5076017;28;20015;-28
2024/01/27 06:15:23;;;;;;;26.00;7.32;;;;;;;;;;5075916;28;20040;-29
2024/01/27 06:17:48;;;;;;;24.48;8.55;;;;;;;;;;5075669;28;20027;-28
2024/01/27 06:20:16;;;;;;;25.27;7.40;;;;;;;;;;5074627;28;20031;-28
2024/01/27 06:22:41;;;;;;;21.33;7.68;;;;;;;;;;5075846;28;20270;-27
2024/01/27 06:25:07;;;;;;;19.30;7.22;;;;;;;;;;5075341;28;20020;-28
2024/01/27 06:27:32;;;;;;;21.33;7.13;;;;;;;;;;5075501;28;20032;-27
2024/01/27 06:29:58;;;;;;;21.70;7.20;;;;;;;;;;5075382;28;20013;-27
2024/01/27 06:32:23;;;;;;;20.17;7.45;;;;;;;;;;5074199;28;20032;-28
2024/01/27 06:34:48;;;;;;;23.13;6.50;;;;;;;;;;5075877;28;20025;-27
2024/01/27 06:37:14;;;;;;;20.40;7.13;;;;;;;;;;5075446;28;20266;-28
2024/01/27 06:39:39;;;;;;;23.30;7.47;;;;;;;;;;5074149;28;20066;-27
2024/01/27 06:42:04;;;;;;;30.80;7.80;;;;;;;;;;5075916;28;20028;-28
2024/01/27 06:44:29;;;;;;;19.20;7.67;;;;;;;;;;5075296;28;20769;-28
2024/01/27 06:46:54;;;;;;;23.25;6.85;;;;;;;;;;5075139;28;20350;-28
2024/01/27 06:49:20;;;;;;;18.45;7.40;;;;;;;;;;5075022;28;20023;-28
2024/01/27 06:51:45;;;;;;;21.15;6.80;;;;;;;;;;5075666;28;20366;-28
2024/01/27 06:54:10;;;;;;;22.77;7.78;;;;;;;;;;5075169;28;20021;-28
2024/01/27 06:56:36;;;;;;;20.35;7.72;;;;;;;;;;5073761;28;20107;-29
2024/01/27 06:59:02;;;;;;;17.65;7.15;;;;;;;;;;5073833;28;20062;-27
2024/01/27 07:01:27;;;;;;;22.50;7.53;;;;;;;;;;5073628;28;20063;-28
2024/01/27 07:03:52;;;;;;;23.73;7.68;;;;;;;;;;5074657;28;20035;-27
2024/01/27 07:06:18;;;;;;;23.67;7.47;;;;;;;;;;5073447;28;20017;-27
2024/01/27 07:08:43;;;;;;;19.35;6.85;;;;;;;;;;5074585;28;20371;-28
2024/01/27 07:11:08;;;;;;;22.83;7.13;;;;;;;;;;5075019;28;20066;-27
2024/01/27 07:13:33;;;;;;;24.00;7.82;;;;;;;;;;5074480;28;20259;-28
2024/01/27 07:15:58;;;;;;;15.63;7.07;;;;;;;;;;5074501;28;20070;-28
2024/01/27 07:18:24;;;;;;;27.05;8.02;;;;;;;;;;5074699;28;20036;-27
2024/01/27 07:20:49;;;;;;;23.88;7.55;;;;;;;;;;5074886;28;20410;-28
2024/01/27 07:23:14;;;;;;;18.33;8.00;;;;;;;;;;5074410;28;20451;-28
2024/01/27 07:25:39;;;;;;;22.20;7.90;;;;;;;;;;5074212;28;20089;-28
2024/01/27 07:28:05;;;;;;;21.53;7.70;;;;;;;;;;5074926;28;20071;-27
2024/01/27 07:30:31;;;;;;;17.70;7.53;;;;;;;;;;5074144;28;20255;-27
2024/01/27 07:32:56;;;;;;;19.90;8.13;;;;;;;;;;5073903;28;20025;-28
2024/01/27 07:35:21;;;;;;;19.92;7.55;;;;;;;;;;5074096;28;20052;-27
2024/01/27 07:37:46;;;;;;;24.95;7.97;;;;;;;;;;5074581;28;20170;-28
2024/01/27 07:40:11;;;;;;;20.73;8.03;;;;;;;;;;5074078;28;20016;-27
2024/01/27 07:42:37;;;;;;;20.45;7.18;;;;;;;;;;5073923;28;20274;-28
2024/01/27 07:45:02;;;;;;;20.08;7.65;;;;;;;;;;5073961;28;20028;-28
2024/01/27 07:47:27;;;;;;;24.50;8.02;;;;;;;;;;5074054;28;20097;-28
2024/01/27 07:49:53;;;;;;;25.25;7.55;;;;;;;;;;5073857;28;20031;-27
2024/01/27 07:52:18;;;;;;;32.45;8.07;;;;;;;;;;5074030;28;20020;-28
2024/01/27 07:54:44;;;;;;;20.85;7.57;;;;;;;;;;5073739;28;20028;-28
2024/01/27 07:57:09;;;;;;;25.23;8.02;;;;;;;;;;5073962;28;20099;-28
2024/01/27 07:59:34;;;;;;;22.40;8.05;;;;;;;;;;5073774;28;20070;-28
2024/01/27 08:02:00;;;;;;;18.73;7.15;;;;;;;;;;5073434;28;20044;-28
2024/01/27 08:04:25;;;;;;;20.00;7.65;;;;;;;;;;5073492;28;20028;-27
2024/01/27 08:06:50;;;;;;;17.88;7.78;;;;;;;;;;5074422;28;20021;-28
2024/01/27 08:09:16;;;;;;;18.98;8.10;;;;;;;;;;5073754;28;20103;-28
2024/01/27 08:11:42;;;;;;;23.08;8.07;;;;;;;;;;5073459;28;20023;-28
2024/01/27 08:14:07;;;;;;;22.77;7.90;;;;;;;;;;5074492;28;20032;-27
2024/01/27 08:16:32;;;;;;;22.37;7.50;;;;;;;;;;5073416;28;20113;-28
2024/01/27 08:18:58;;;;;;;19.40;7.82;;;;;;;;;;5073459;28;20247;-28
2024/01/27 08:21:23;;;;;;;19.95;7.20;;;;;;;;;;5073534;28;20024;-28
2024/01/27 08:23:48;;;;;;;19.70;7.47;;;;;;;;;;5073364;28;20442;-28
2024/01/27 08:26:13;;;;;;;18.70;7.28;;;;;;;;;;5073643;28;20083;-28
2024/01/27 08:28:39;;;;;;;18.10;7.60;;;;;;;;;;5073379;28;20402;-28
2024/01/27 08:31:04;;;;;;;19.42;8.35;;;;;;;;;;5073590;28;20100;-28
2024/01/27 08:33:30;;;;;;;23.30;7.80;;;;;;;;;;5073586;28;20051;-28
2024/01/27 08:35:55;;;;;;;21.73;7.47;;;;;;;;;;5073615;28;20435;-28
2024/01/27 08:38:20;;;;;;;20.40;7.70;;;;;;;;;;5073550;28;20033;-27
2024/01/27 08:40:45;;;;;;;22.17;7.83;;;;;;;;;;5073851;28;20056;-27
2024/01/27 08:43:11;;;;;;;18.37;7.53;;;;;;;;;;5073707;28;20243;-28
2024/01/27 08:45:37;;;;;;;16.48;8.18;;;;;;;;;;5077354;28;20283;-28
2024/01/27 08:48:02;;;;;;;19.25;7.90;;;;;;;;;;5077591;28;20017;-28
2024/01/27 08:50:27;;;;;;;19.23;8.13;;;;;;;;;;5077616;28;20048;-28
2024/01/27 08:52:52;;;;;;;19.90;7.70;;;;;;;;;;5077244;28;20379;-28
2024/01/27 08:55:18;;;;;;;22.60;7.97;;;;;;;;;;5077128;28;20266;-28
2024/01/27 08:57:44;;;;;;;20.90;7.70;;;;;;;;;;5076978;28;20259;-28
2024/01/27 09:00:09;;;;;;;22.85;7.72;;;;;;;;;;5077277;28;20031;-27
2024/01/27 09:02:35;;;;;;;16.92;7.88;;;;;;;;;;5076547;28;20070;-28
2024/01/27 09:05:00;;;;;;;17.63;7.33;;;;;;;;;;5076779;28;20052;-28
2024/01/27 09:07:25;;;;;;;22.83;7.93;;;;;;;;;;5077405;28;20258;-28
2024/01/27 09:09:50;;;;;;;21.90;8.00;;;;;;;;;;5076738;28;20243;-27
2024/01/27 09:12:15;;;;;;;18.05;8.25;;;;;;;;;;5076645;28;20259;-27
2024/01/27 09:14:41;;;;;;;18.93;8.20;;;;;;;;;;5077008;28;20063;-28
2024/01/27 09:17:06;;;;;;;16.65;7.97;;;;;;;;;;5077203;28;20643;-28
2024/01/27 09:19:31;;;;;;;24.58;7.75;;;;;;;;;;5076681;28;20023;-28
2024/01/27 09:21:56;;;;;;;21.83;7.97;;;;;;;;;;5076596;28;20020;-28
2024/01/27 09:24:21;;;;;;;15.93;7.53;;;;;;;;;;5076433;28;20017;-28
2024/01/27 09:26:46;;;;;;;20.00;7.07;;;;;;;;;;5077099;28;20017;-27
2024/01/27 09:29:12;;;;;;;21.50;7.33;;;;;;;;;;5076621;28;20312;-28
2024/01/27 09:31:37;;;;;;;22.30;7.35;;;;;;;;;;5076379;28;20318;-27
2024/01/27 09:34:02;;;;;;;20.67;7.57;;;;;;;;;;5076711;28;20024;-27
2024/01/27 09:36:28;;;;;;;17.17;7.80;;;;;;;;;;5076599;28;20052;-27
2024/01/27 09:38:54;;;;;;;21.30;7.63;;;;;;;;;;5076452;28;20259;-27
2024/01/27 09:41:19;;;;;;;20.85;7.78;;;;;;;;;;5076639;28;20029;-27
2024/01/27 09:43:45;;;;;;;17.25;6.93;;;;;;;;;;5075983;28;20078;-27
2024/01/27 09:46:11;;;;;;;19.20;7.65;;;;;;;;;;5076674;28;20091;-27
2024/01/27 09:48:36;;;;;;;21.52;8.05;;;;;;;;;;5077125;28;20065;-27
2024/01/27 09:51:03;;;;;;;24.42;7.72;;;;;;;;;;5076106;28;20012;-27
2024/01/27 09:53:28;;;;;;;22.75;7.65;;;;;;;;;;5076123;28;20379;-28
2024/01/27 09:55:53;;;;;;;19.08;7.13;;;;;;;;;;5076478;28;20020;-28
2024/01/27 09:58:19;;;;;;;18.58;6.85;;;;;;;;;;5076342;28;20375;-28
2024/01/27 10:00:44;;;;;;;19.63;6.55;;;;;;;;;;5076413;28;20340;-29
2024/01/27 10:03:09;;;;;;;21.08;6.70;;;;;;;;;;5073984;28;20052;-28
2024/01/27 10:05:35;;;;;;;19.48;6.38;;;;;;;;;;5075301;28;20017;-28
2024/01/27 10:08:00;;;;;;;16.73;6.25;;;;;;;;;;5075304;28;20074;-28
2024/01/27 10:10:26;;;;;;;21.50;6.13;;;;;;;;;;5075275;28;20058;-28
2024/01/27 10:12:53;;;;;;;16.77;5.75;;;;;;;;;;5075433;28;20363;-28
2024/01/27 10:15:19;;;;;;;15.77;5.40;;;;;;;;;;5073709;28;20025;-28
2024/01/27 10:17:44;;;;;;;18.48;5.55;;;;;;;;;;5075837;28;20020;-28
2024/01/27 10:20:13;;;;;;;19.97;5.80;;;;;;;;;;5075683;28;20023;-28
2024/01/27 10:22:39;;;;;;;17.23;5.85;;;;;;;;;;5075889;28;20017;-28
2024/01/27 10:25:04;;;;;;;15.90;5.53;;;;;;;;;;5075763;28;20024;-28
2024/01/27 10:27:29;;;;;;;18.20;5.53;;;;;;;;;;5075727;28;20017;-28
2024/01/27 10:29:55;;;;;;;13.80;5.20;;;;;;;;;;5075266;28;20096;-28
2024/01/27 10:32:23;;;;;;;15.80;5.43;;;;;;;;;;5075384;28;20060;-28
2024/01/27 10:34:48;;;;;;;15.77;5.68;;;;;;;;;;5075651;28;20432;-28
2024/01/27 10:37:13;;;;;;;18.47;5.30;;;;;;;;;;5075247;28;20106;-28
2024/01/27 10:39:39;;;;;;;14.35;5.10;;;;;;;;;;5073937;28;20048;-29
2024/01/27 10:42:05;;;;;;;13.60;5.53;;;;;;;;;;5075151;28;20104;-29
2024/01/27 10:44:31;;;;;;;14.43;5.38;;;;;;;;;;5075120;28;20032;-28
2024/01/27 10:46:56;;;;;;;15.40;5.78;;;;;;;;;;5075160;28;20027;-28
2024/01/27 10:49:22;;;;;;;14.20;5.47;;;;;;;;;;5075051;28;20047;-29
2024/01/27 10:51:58;;;;;;;17.02;5.57;;;;;;;;;;5074876;28;20038;-28
2024/01/27 10:54:25;;;;;;;16.52;5.57;;;;;;;;;;5075127;28;20037;-29
2024/01/27 10:56:52;;;;;;;13.82;5.30;;;;;;;;;;5074837;28;20024;-29
2024/01/27 10:59:18;;;;;;;16.95;5.25;;;;;;;;;;5074523;28;20020;-28
2024/01/27 11:01:43;;;;;;;16.75;5.13;;;;;;;;;;5074590;28;20076;-29
2024/01/27 11:04:10;;;;;;;18.40;5.43;;;;;;;;;;5074830;28;20367;-28
2024/01/27 11:06:37;;;;;;;18.20;5.82;;;;;;;;;;5074146;28;20372;-28
2024/01/27 11:09:05;;;;;;;15.95;5.57;;;;;;;;;;5075001;28;20017;-29
2024/01/27 11:11:31;;;;;;;17.20;5.53;;;;;;;;;;5074654;28;20108;-29
2024/01/27 11:13:56;;;;;;;13.68;5.18;;;;;;;;;;5074924;28;20097;-29
2024/01/27 11:16:23;;;;;;;16.90;5.53;;;;;;;;;;5074429;28;20013;-28
2024/01/27 11:18:48;;;;;;;14.70;5.15;;;;;;;;;;5074355;28;20079;-29
2024/01/27 11:21:16;;;;;;;17.73;4.95;;;;;;;;;;5074475;28;20017;-29
2024/01/27 11:23:42;;;;;;;15.48;5.35;;;;;;;;;;5074406;28;20017;-29
2024/01/27 11:26:08;;;;;;;15.30;5.57;;;;;;;;;;5072527;28;20089;-29
2024/01/27 11:28:33;;;;;;;15.20;5.53;;;;;;;;;;5074579;28;20074;-28
2024/01/27 11:31:02;;;;;;;17.25;5.28;;;;;;;;;;5074450;28;20016;-29
2024/01/27 11:33:28;;;;;;;14.88;5.35;;;;;;;;;;5074460;28;20097;-29
2024/01/27 11:35:59;;;;;;;21.93;5.27;;;;;;;;;;5074161;28;20515;-29
2024/01/27 11:38:25;;;;;;;18.42;5.85;;;;;;;;;;5073975;28;20052;-28
2024/01/27 11:40:50;;;;;;;15.37;4.90;;;;;;;;;;5074630;28;20016;-28
2024/01/27 11:43:15;;;;;;;19.20;5.27;;;;;;;;;;5074046;28;20048;-28
2024/01/27 11:45:41;;;;;;;20.27;5.63;;;;;;;;;;5073850;28;20020;-28
2024/01/27 11:48:06;;;;;;;16.37;5.43;;;;;;;;;;5073783;28;20009;-28
2024/01/27 11:50:31;;;;;;;14.93;4.97;;;;;;;;;;5073963;28;20440;-28
2024/01/27 11:52:56;;;;;;;12.00;4.40;;;;;;;;;;5073662;28;20044;-28
2024/01/27 11:55:22;;;;;;;14.20;4.70;;;;;;;;;;5073792;28;20023;-28
2024/01/27 11:57:47;;;;;;;16.90;5.07;;;;;;;;;;5073767;28;20024;-28
2024/01/27 12:00:12;;;;;;;17.90;4.50;;;;;;;;;;5074331;28;20094;-29
2024/01/27 12:02:38;;;;;;;16.67;4.88;;;;;;;;;;5073292;28;20619;-29
2024/01/27 12:05:05;;;;;;;17.25;4.75;;;;;;;;;;5073768;28;20444;-28
2024/01/27 12:07:31;;;;;;;16.85;5.13;;;;;;;;;;5074086;28;20028;-28
2024/01/27 12:09:56;;;;;;;16.52;4.60;;;;;;;;;;5073494;28;20016;-28
2024/01/27 12:12:21;;;;;;;17.15;4.95;;;;;;;;;;5073723;28;20024;-28
2024/01/27 12:14:50;;;;;;;19.77;4.60;;;;;;;;;;5073538;28;20030;-28
2024/01/27 12:17:15;;;;;;;16.88;4.90;;;;;;;;;;5073459;28;20258;-28
2024/01/27 12:19:47;;;;;;;16.20;4.90;;;;;;;;;;5072658;28;20042;-28
2024/01/27 12:22:23;;;;;;;19.80;5.05;;;;;;;;;;5073730;28;20035;-28
2024/01/27 12:24:48;;;;;;;17.33;4.80;;;;;;;;;;5073292;28;20108;-28
2024/01/27 12:27:14;;;;;;;19.27;4.65;;;;;;;;;;5073391;28;20056;-29
2024/01/27 12:29:42;;;;;;;15.93;4.35;;;;;;;;;;5073991;28;20040;-28
2024/01/27 12:32:08;;;;;;;20.17;5.03;;;;;;;;;;5073365;28;20056;-28
2024/01/27 12:34:33;;;;;;;18.98;4.38;;;;;;;;;;5072883;28;20091;-28
2024/01/27 12:36:58;;;;;;;13.70;4.47;;;;;;;;;;5072260;28;20017;-28
2024/01/27 12:39:23;;;;;;;13.50;4.10;;;;;;;;;;5073261;28;20266;-29
2024/01/27 12:41:49;;;;;;;13.47;4.23;;;;;;;;;;5073290;28;20251;-28
2024/01/27 12:44:14;;;;;;;17.77;4.37;;;;;;;;;;5073672;28;20347;-30
2024/01/27 12:46:39;;;;;;;18.07;4.70;;;;;;;;;;5073225;28;20349;-28
2024/01/27 12:49:05;;;;;;;16.60;4.20;;;;;;;;;;5073483;28;20028;-28
2024/01/27 12:51:30;;;;;;;12.43;3.90;;;;;;;;;;5073447;28;20037;-29
2024/01/27 12:53:55;;;;;;;15.10;4.07;;;;;;;;;;5073177;28;20046;-30
2024/01/27 12:56:20;;;;;;;14.37;4.47;;;;;;;;;;5073190;28;20059;-28
2024/01/27 12:58:46;;;;;;;15.47;4.43;;;;;;;;;;5071857;28;20020;-28
2024/01/27 13:01:11;;;;;;;15.30;4.50;;;;;;;;;;5073192;28;20020;-28
2024/01/27 13:03:36;;;;;;;19.30;5.10;;;;;;;;;;5073619;28;20027;-28
2024/01/27 13:06:02;;;;;;;12.23;3.87;;;;;;;;;;5073026;28;20383;-29
2024/01/27 13:08:27;;;;;;;16.10;4.25;;;;;;;;;;5073267;28;20017;-30
2024/01/27 13:10:52;;;;;;;18.80;4.47;;;;;;;;;;5073039;28;20028;-28
2024/01/27 13:13:18;;;;;;;17.63;4.40;;;;;;;;;;5072947;28;20480;-28
2024/01/27 13:15:43;;;;;;;19.00;4.13;;;;;;;;;;5073174;28;20036;-28
2024/01/27 13:18:10;;;;;;;18.98;4.22;;;;;;;;;;5073227;28;20460;-28
2024/01/27 13:20:35;;;;;;;19.23;4.55;;;;;;;;;;5073156;28;20375;-28
2024/01/27 13:23:00;;;;;;;19.63;4.18;;;;;;;;;;5073131;28;20117;-28
2024/01/27 13:25:25;;;;;;;15.77;4.35;;;;;;;;;;5071568;28;20036;-28
2024/01/27 13:27:50;;;;;;;15.03;4.33;;;;;;;;;;5072904;28;20024;-28
2024/01/27 13:30:17;;;;;;;20.53;4.47;;;;;;;;;;5074399;28;20026;-28
2024/01/27 13:32:42;;;;;;;19.50;4.63;;;;;;;;;;5076603;28;20296;-28
2024/01/27 13:35:08;;;;;;;19.23;4.70;;;;;;;;;;5076963;28;20020;-29
2024/01/27 13:37:36;;;;;;;15.63;4.55;;;;;;;;;;5075253;28;20468;-29
2024/01/27 13:40:02;;;;;;;22.00;4.60;;;;;;;;;;5075430;28;20380;-27
2024/01/27 13:42:27;;;;;;;20.65;4.53;;;;;;;;;;5075398;28;20021;-27
2024/01/27 13:44:52;;;;;;;25.97;4.57;;;;;;;;;;5075894;28;20028;-27
2024/01/27 13:47:17;;;;;;;15.38;4.30;;;;;;;;;;5076256;28;20642;-27
2024/01/27 13:49:43;;;;;;;14.43;4.10;;;;;;;;;;5076594;28;20482;-28
2024/01/27 13:52:08;;;;;;;18.77;4.57;;;;;;;;;;5076274;28;20467;-27
2024/01/27 13:54:34;;;;;;;19.67;5.38;;;;;;;;;;5076424;28;20054;-27
2024/01/27 13:56:59;;;;;;;16.60;4.90;;;;;;;;;;5076697;28;20021;-28
2024/01/27 13:59:25;;;;;;;19.63;4.40;;;;;;;;;;5076087;28;20023;-28
2024/01/27 14:01:50;;;;;;;18.90;4.38;;;;;;;;;;5076073;28;20036;-28
2024/01/27 14:04:15;;;;;;;19.20;5.15;;;;;;;;;;5076388;28;20024;-28
2024/01/27 14:06:40;;;;;;;14.97;4.77;;;;;;;;;;5076198;28;20088;-27
2024/01/27 14:09:06;;;;;;;18.77;4.60;;;;;;;;;;5075816;28;20239;-28
2024/01/27 14:11:32;;;;;;;23.58;4.78;;;;;;;;;;5076001;28;20266;-28
2024/01/27 14:13:57;;;;;;;16.90;4.93;;;;;;;;;;5075771;28;20043;-28
2024/01/27 14:16:22;;;;;;;18.50;5.07;;;;;;;;;;5075809;28;20243;-28
2024/01/27 14:18:47;;;;;;;16.17;4.60;;;;;;;;;;5075992;28;20266;-28
2024/01/27 14:21:12;;;;;;;22.35;5.78;;;;;;;;;;5076026;28;20372;-27